Time;durP1;ratioP1;P1;durP2;ratioP2;P2;SDS_P1;SDS_P2;PMS_P1;PMS_P2;Temp;Humidity;BMP_temperature;BMP_pressure;BME280_temperature;BME280_humidity;BME280_pressure;Samples;Min_cycle;Max_cycle;Signal;HPM_P1;HPM_P2
2023/11/11 00:00:47;;;;;;;6.20;2.50;;;;;;;18.91;41.77;100014.30;103734;1282;74390;-81
2023/11/11 00:03:14;;;;;;;4.30;2.80;;;;;;;18.91;41.74;100013.04;103517;1282;62489;-82
2023/11/11 00:05:42;;;;;;;4.90;2.50;;;;;;;18.91;41.78;100013.04;103862;1282;62577;-80
2023/11/11 00:08:08;;;;;;;4.90;2.60;;;;;;;18.90;41.77;100015.76;103948;1284;72250;-81
2023/11/11 00:10:33;;;;;;;5.50;2.90;;;;;;;18.90;41.75;100029.48;103922;1283;61320;-82
2023/11/11 00:12:59;;;;;;;6.60;2.90;;;;;;;18.91;41.86;100040.31;103896;1285;62630;-82
2023/11/11 00:15:25;;;;;;;5.20;2.60;;;;;;;18.91;41.93;100043.53;103825;1283;61362;-81
2023/11/11 00:17:50;;;;;;;4.70;2.40;;;;;;;18.91;41.78;100039.08;103990;1282;61405;-82
2023/11/11 00:20:16;;;;;;;5.20;2.50;;;;;;;18.91;41.82;100036.93;103850;1288;61281;-81
2023/11/11 00:22:43;;;;;;;4.30;2.60;;;;;;;18.91;41.77;100046.35;103718;1282;74147;-81
2023/11/11 00:25:09;;;;;;;6.00;2.90;;;;;;;18.91;41.78;100054.77;103840;1284;62558;-82
2023/11/11 00:27:35;;;;;;;5.50;2.50;;;;;;;18.91;41.82;100056.88;103718;1282;61310;-81
2023/11/11 00:30:06;;;;;;;5.30;2.80;;;;;;;18.91;42.00;100051.34;103682;1283;61354;-81
2023/11/11 00:32:33;;;;;;;4.80;2.60;;;;;;;18.91;41.93;100037.95;103863;1285;74599;-81
2023/11/11 00:35:00;;;;;;;6.00;2.70;;;;;;;18.91;41.91;100027.08;103751;1283;61327;-81
2023/11/11 00:37:26;;;;;;;6.00;2.90;;;;;;;18.91;41.93;100019.61;103806;1285;61382;-80
2023/11/11 00:39:55;;;;;;;4.60;2.50;;;;;;;18.91;41.95;100007.84;103923;1284;72554;-81
2023/11/11 00:42:23;;;;;;;5.10;2.60;;;;;;;18.91;41.97;100005.19;103667;1282;73299;-80
2023/11/11 00:44:49;;;;;;;4.70;2.60;;;;;;;18.91;41.94;100000.35;103841;1287;61375;-81
2023/11/11 00:47:16;;;;;;;5.80;3.00;;;;;;;18.91;41.91;99994.46;103928;1285;61375;-80
2023/11/11 00:49:42;;;;;;;6.90;3.00;;;;;;;18.91;42.05;99989.52;103924;1283;61403;-81
2023/11/11 00:52:08;;;;;;;7.10;3.10;;;;;;;18.91;41.93;99992.86;103744;1287;61343;-81
2023/11/11 00:54:37;;;;;;;4.80;2.80;;;;;;;18.91;41.93;99992.70;103513;1288;62519;-80
2023/11/11 00:57:05;;;;;;;5.20;2.70;;;;;;;18.91;41.93;99992.50;103828;1285;61371;-81
2023/11/11 00:59:31;;;;;;;6.10;3.20;;;;;;;18.90;42.07;99987.77;103767;1288;72630;-81
2023/11/11 01:02:04;;;;;;;5.70;3.20;;;;;;;18.91;41.91;99979.68;103638;1284;74355;-81
2023/11/11 01:04:29;;;;;;;5.50;2.80;;;;;;;18.91;41.92;99971.86;103682;1286;61289;-82
2023/11/11 01:06:58;;;;;;;6.20;3.20;;;;;;;18.91;42.05;99970.41;103793;1285;61743;-82
2023/11/11 01:09:24;;;;;;;5.80;3.10;;;;;;;18.91;42.07;99965.43;103697;1287;72324;-81
2023/11/11 01:11:51;;;;;;;4.60;2.70;;;;;;;18.91;42.14;99958.31;103700;1282;62903;-82
2023/11/11 01:14:17;;;;;;;8.60;3.10;;;;;;;18.90;42.14;99946.40;103563;1290;61407;-82
2023/11/11 01:16:43;;;;;;;6.70;3.20;;;;;;;18.91;42.14;99937.79;103829;1285;61368;-82
2023/11/11 01:19:10;;;;;;;6.50;3.00;;;;;;;18.91;42.04;99932.29;103800;1282;61942;-81
2023/11/11 01:21:36;;;;;;;6.60;2.80;;;;;;;18.90;42.17;99929.48;103605;1287;61387;-82
2023/11/11 01:24:02;;;;;;;6.80;3.10;;;;;;;18.90;42.06;99924.13;103783;1282;61402;-80
2023/11/11 01:26:29;;;;;;;5.50;2.80;;;;;;;18.90;42.10;99916.80;103771;1287;61378;-81
2023/11/11 01:28:56;;;;;;;5.00;2.80;;;;;;;18.90;42.11;99910.56;103580;1288;61922;-81
2023/11/11 01:31:23;;;;;;;6.40;3.20;;;;;;;18.90;42.15;99911.48;103568;1286;61372;-82
2023/11/11 01:33:49;;;;;;;5.60;3.10;;;;;;;18.91;42.16;99919.83;103662;1287;61775;-81
2023/11/11 01:36:15;;;;;;;6.50;2.70;;;;;;;18.90;42.21;99928.21;104047;1286;61304;-80
2023/11/11 01:38:41;;;;;;;6.20;2.60;;;;;;;18.91;42.18;99922.48;103778;1288;61410;-82
2023/11/11 01:41:06;;;;;;;5.80;2.80;;;;;;;18.91;42.12;99920.69;103658;1283;61554;-81
2023/11/11 01:43:32;;;;;;;5.80;3.00;;;;;;;18.91;42.15;99914.08;103682;1282;61453;-82
2023/11/11 01:46:01;;;;;;;5.50;2.70;;;;;;;18.91;42.12;99908.39;103701;1287;61351;-83
2023/11/11 01:48:28;;;;;;;5.30;2.70;;;;;;;18.91;42.28;99900.56;103777;1286;61389;-83
2023/11/11 01:50:54;;;;;;;5.00;2.90;;;;;;;18.90;42.27;99888.98;103601;1288;72540;-81
2023/11/11 01:53:20;;;;;;;6.30;2.80;;;;;;;18.90;42.31;99879.91;103762;1282;61317;-84
2023/11/11 01:55:47;;;;;;;6.80;2.90;;;;;;;18.91;42.27;99882.38;103757;1283;61455;-80
2023/11/11 01:58:15;;;;;;;6.20;2.70;;;;;;;18.90;42.35;99880.06;103933;1282;61300;-81
2023/11/11 02:00:42;;;;;;;6.20;2.70;;;;;;;18.91;42.18;99873.09;103738;1289;72619;-80
2023/11/11 02:03:08;;;;;;;5.40;2.60;;;;;;;18.90;42.40;99870.12;103817;1285;62667;-83
2023/11/11 02:05:36;;;;;;;6.20;3.00;;;;;;;18.90;42.40;99874.21;103893;1283;61346;-81
2023/11/11 02:08:05;;;;;;;6.50;2.80;;;;;;;18.91;42.26;99874.89;103771;1286;61304;-82
2023/11/11 02:10:32;;;;;;;4.80;2.80;;;;;;;18.90;42.29;99871.00;103805;1287;72707;-81
2023/11/11 02:12:59;;;;;;;5.50;2.80;;;;;;;18.90;42.24;99863.68;103561;1283;74250;-82
2023/11/11 02:15:26;;;;;;;5.90;2.60;;;;;;;18.91;42.35;99860.45;103526;1288;61331;-81
2023/11/11 02:17:53;;;;;;;6.00;2.80;;;;;;;18.90;42.23;99858.50;103816;1286;61349;-82
2023/11/11 02:20:19;;;;;;;7.80;3.10;;;;;;;18.90;42.27;99864.55;103785;1283;72481;-82
2023/11/11 02:22:45;;;;;;;7.10;2.70;;;;;;;18.91;42.36;99865.27;103647;1283;62586;-81
2023/11/11 02:25:10;;;;;;;5.80;2.80;;;;;;;18.90;42.34;99869.73;103406;1290;61559;-80
2023/11/11 02:27:36;;;;;;;7.50;3.40;;;;;;;18.90;42.41;99866.16;103409;1285;61623;-82
2023/11/11 02:30:10;;;;;;;5.70;2.70;;;;;;;18.91;42.30;99868.45;103454;1287;61530;-81
2023/11/11 02:32:37;;;;;;;6.90;2.70;;;;;;;18.91;42.42;99862.56;103493;1288;74374;-81
2023/11/11 02:35:04;;;;;;;5.50;2.70;;;;;;;18.91;42.48;99853.49;103409;1285;61832;-81
2023/11/11 02:37:30;;;;;;;7.40;3.10;;;;;;;18.91;42.56;99849.39;103552;1285;61431;-80
2023/11/11 02:39:56;;;;;;;7.20;3.00;;;;;;;18.91;42.48;99845.80;103526;1290;61331;-81
2023/11/11 02:42:22;;;;;;;5.90;3.10;;;;;;;18.91;42.44;99842.38;103378;1287;62633;-81
2023/11/11 02:44:47;;;;;;;10.30;2.90;;;;;;;18.91;42.51;99842.56;103366;1290;61416;-81
2023/11/11 02:47:13;;;;;;;5.60;3.00;;;;;;;18.91;42.53;99838.66;103440;1286;62447;-81
2023/11/11 02:49:40;;;;;;;7.20;3.00;;;;;;;18.91;42.44;99838.66;103295;1288;61380;-81
2023/11/11 02:52:06;;;;;;;6.10;2.90;;;;;;;18.91;42.57;99843.99;103525;1286;61351;-81
2023/11/11 02:54:31;;;;;;;5.60;2.70;;;;;;;18.91;42.53;99846.52;103336;1290;61487;-81
2023/11/11 02:56:57;;;;;;;6.20;2.70;;;;;;;18.91;42.60;99851.14;103510;1292;61389;-80
2023/11/11 02:59:23;;;;;;;6.30;3.10;;;;;;;18.90;42.56;99855.66;103800;1286;61881;-80
2023/11/11 03:01:51;;;;;;;6.80;3.00;;;;;;;18.91;42.52;99855.27;103611;1288;61396;-81
2023/11/11 03:04:17;;;;;;;4.90;2.60;;;;;;;18.90;42.55;99853.31;103503;1287;74480;-83
2023/11/11 03:06:43;;;;;;;6.90;3.30;;;;;;;18.91;42.69;99850.63;103593;1289;61328;-81
2023/11/11 03:09:12;;;;;;;7.20;3.10;;;;;;;18.90;42.58;99846.00;103667;1288;61413;-82
2023/11/11 03:11:38;;;;;;;5.80;2.80;;;;;;;18.90;42.60;99840.30;103609;1284;71516;-81
2023/11/11 03:14:04;;;;;;;8.00;3.10;;;;;;;18.90;42.64;99834.98;103653;1283;61350;-81
2023/11/11 03:16:37;;;;;;;7.30;3.00;;;;;;;18.90;42.67;99830.00;103668;1288;62425;-80
2023/11/11 03:19:04;;;;;;;5.10;2.90;;;;;;;18.91;42.64;99829.42;103679;1288;61365;-82
2023/11/11 03:21:31;;;;;;;5.90;3.00;;;;;;;18.89;42.62;99837.17;103609;1287;72694;-82
2023/11/11 03:23:57;;;;;;;7.60;3.00;;;;;;;18.89;42.54;99841.63;103622;1287;61391;-82
2023/11/11 03:26:23;;;;;;;6.80;2.60;;;;;;;18.90;42.64;99846.77;103594;1283;61450;-81
2023/11/11 03:28:49;;;;;;;4.70;2.50;;;;;;;18.89;42.62;99839.14;103550;1283;62601;-81
2023/11/11 03:31:17;;;;;;;6.70;3.00;;;;;;;18.90;42.63;99833.77;103666;1288;61322;-81
2023/11/11 03:33:43;;;;;;;6.80;2.70;;;;;;;18.90;42.68;99812.73;103588;1288;74451;-81
2023/11/11 03:36:09;;;;;;;6.70;3.20;;;;;;;18.89;42.66;99793.51;103860;1286;61360;-81
2023/11/11 03:38:35;;;;;;;6.50;2.60;;;;;;;18.90;42.57;99783.67;103612;1292;61349;-82
2023/11/11 03:41:01;;;;;;;6.10;3.10;;;;;;;18.90;42.59;99783.15;103646;1289;61465;-81
2023/11/11 03:43:27;;;;;;;5.20;3.00;;;;;;;18.89;42.66;99773.02;103628;1287;62602;-81
2023/11/11 03:45:53;;;;;;;8.00;2.90;;;;;;;18.89;42.73;99776.20;103702;1287;61465;-80
2023/11/11 03:48:19;;;;;;;6.50;2.90;;;;;;;18.89;42.85;99778.17;103743;1288;63551;-80
2023/11/11 03:50:44;;;;;;;6.50;3.30;;;;;;;18.89;42.85;99773.00;103717;1288;61465;-81
2023/11/11 03:53:10;;;;;;;7.70;3.20;;;;;;;18.89;42.81;99768.02;103652;1283;61395;-81
2023/11/11 03:55:36;;;;;;;6.00;2.70;;;;;;;18.90;42.79;99762.64;103663;1288;73995;-82
2023/11/11 03:58:06;;;;;;;6.50;3.00;;;;;;;18.89;42.71;99773.52;103502;1290;61314;-81
2023/11/11 04:00:32;;;;;;;5.30;3.00;;;;;;;18.89;42.84;99775.00;103524;1283;61355;-80
2023/11/11 04:02:58;;;;;;;5.10;2.90;;;;;;;18.89;42.86;99784.98;103477;1289;61384;-82
2023/11/11 04:05:24;;;;;;;5.40;2.80;;;;;;;18.89;42.79;99794.77;103667;1288;61387;-81
2023/11/11 04:08:16;;;;;;;6.60;3.00;;;;;;;18.89;42.69;99800.48;103799;1282;62411;-81
2023/11/11 04:10:42;;;;;;;5.50;2.80;;;;;;;18.89;42.81;99796.91;103271;1289;61372;-81
2023/11/11 04:13:09;;;;;;;7.10;3.30;;;;;;;18.89;42.99;99795.70;103098;1289;62745;-82
2023/11/11 04:15:34;;;;;;;4.80;2.90;;;;;;;18.89;42.86;99791.94;103119;1293;61336;-80
2023/11/11 04:18:00;;;;;;;5.50;2.80;;;;;;;18.89;42.74;99787.84;103133;1295;61573;-81
2023/11/11 04:20:26;;;;;;;7.30;3.30;;;;;;;18.89;42.81;99792.45;102909;1289;61351;-82
2023/11/11 04:22:52;;;;;;;6.80;3.00;;;;;;;18.89;42.86;99791.90;102876;1287;61891;-81
2023/11/11 04:25:17;;;;;;;5.00;3.00;;;;;;;18.89;42.89;99786.05;103111;1290;61611;-82
2023/11/11 04:27:43;;;;;;;7.80;3.10;;;;;;;18.89;43.01;99782.30;103097;1289;61394;-80
2023/11/11 04:30:10;;;;;;;4.90;2.90;;;;;;;18.89;42.98;99783.00;103246;1294;61463;-81
2023/11/11 04:32:36;;;;;;;7.30;3.30;;;;;;;18.89;43.01;99784.44;103237;1296;61369;-83
2023/11/11 04:35:02;;;;;;;7.30;3.10;;;;;;;18.89;43.03;99788.91;103059;1294;61270;-81
2023/11/11 04:37:28;;;;;;;5.50;3.10;;;;;;;18.89;43.06;99786.23;103228;1288;61404;-81
2023/11/11 04:39:59;;;;;;;5.70;3.10;;;;;;;18.89;42.99;99782.67;103155;1294;62397;-81
2023/11/11 04:42:26;;;;;;;6.40;3.10;;;;;;;18.89;43.05;99785.68;103167;1289;61450;-80
2023/11/11 04:44:53;;;;;;;7.00;3.00;;;;;;;18.89;43.00;99791.23;103407;1289;72033;-81
2023/11/11 04:47:20;;;;;;;6.50;3.20;;;;;;;18.89;43.13;99788.36;103314;1284;74497;-82
2023/11/11 04:49:47;;;;;;;6.50;3.30;;;;;;;18.89;43.06;99786.73;103859;1287;61234;-81
2023/11/11 04:52:12;;;;;;;6.00;3.60;;;;;;;18.89;43.07;99786.39;103728;1283;61294;-80
2023/11/11 04:54:38;;;;;;;6.40;3.20;;;;;;;18.89;43.12;99790.64;103500;1283;61459;-82
2023/11/11 04:57:05;;;;;;;4.80;3.20;;;;;;;18.90;43.03;99787.23;103607;1289;61409;-81
2023/11/11 04:59:30;;;;;;;5.70;3.20;;;;;;;18.90;43.08;99794.70;103520;1285;61465;-81
2023/11/11 05:01:56;;;;;;;5.10;3.10;;;;;;;18.90;43.21;99808.61;103431;1288;61502;-82
2023/11/11 05:04:23;;;;;;;5.10;2.50;;;;;;;18.90;43.13;99809.16;103674;1288;61275;-81
2023/11/11 05:06:49;;;;;;;6.20;3.30;;;;;;;18.89;43.09;99809.92;103492;1283;62644;-80
2023/11/11 05:09:19;;;;;;;5.90;3.40;;;;;;;18.89;43.18;99815.61;103383;1288;61522;-81
2023/11/11 05:11:45;;;;;;;4.50;2.90;;;;;;;18.89;43.03;99815.79;103768;1284;61408;-81
2023/11/11 05:14:13;;;;;;;5.80;3.10;;;;;;;18.89;43.22;99807.98;103428;1283;61501;-81
2023/11/11 05:16:40;;;;;;;7.10;3.30;;;;;;;18.89;43.15;99803.34;103384;1299;72438;-83
2023/11/11 05:19:08;;;;;;;6.80;3.50;;;;;;;18.88;43.20;99796.42;103576;1284;74458;-81
2023/11/11 05:21:34;;;;;;;6.20;3.20;;;;;;;18.89;43.23;99798.91;103459;1285;61733;-81
2023/11/11 05:24:06;;;;;;;6.10;3.40;;;;;;;18.88;43.22;99799.48;103316;1283;61358;-81
2023/11/11 05:26:31;;;;;;;6.00;3.30;;;;;;;18.88;43.21;99796.07;103731;1288;61313;-81
2023/11/11 05:28:57;;;;;;;5.00;3.00;;;;;;;18.88;43.21;99790.90;103499;1285;62022;-83
2023/11/11 05:31:25;;;;;;;6.30;3.50;;;;;;;18.88;43.16;99789.47;103457;1287;61387;-81
2023/11/11 05:33:51;;;;;;;7.00;3.20;;;;;;;18.88;43.23;99786.28;103527;1285;61745;-81
2023/11/11 05:36:17;;;;;;;6.00;3.50;;;;;;;18.88;43.19;99780.23;103437;1289;61290;-81
2023/11/11 05:38:43;;;;;;;7.70;3.30;;;;;;;18.88;43.20;99776.30;103688;1285;61864;-81
2023/11/11 05:41:09;;;;;;;5.60;2.90;;;;;;;18.88;43.30;99764.16;103696;1288;61375;-83
2023/11/11 05:43:34;;;;;;;6.80;3.20;;;;;;;18.89;43.24;99764.51;103624;1288;61348;-81
2023/11/11 05:46:00;;;;;;;6.50;3.30;;;;;;;18.88;43.26;99763.81;103409;1288;61708;-82
2023/11/11 05:48:26;;;;;;;6.90;3.50;;;;;;;18.88;43.32;99762.90;103431;1290;72503;-81
2023/11/11 05:50:51;;;;;;;6.60;3.10;;;;;;;18.88;43.31;99767.39;103654;1285;61401;-81
2023/11/11 05:53:17;;;;;;;5.60;3.20;;;;;;;18.88;43.12;99770.77;103414;1283;62136;-84
2023/11/11 05:55:44;;;;;;;7.40;3.40;;;;;;;18.88;43.26;99771.30;103553;1287;61833;-82
2023/11/11 05:58:10;;;;;;;6.70;3.30;;;;;;;18.88;43.11;99774.84;103569;1282;61650;-81
2023/11/11 06:00:38;;;;;;;6.00;3.60;;;;;;;18.89;43.29;99774.46;103649;1284;62500;-81
2023/11/11 06:03:05;;;;;;;5.90;3.20;;;;;;;18.89;43.27;99781.04;103304;1288;61376;-81
2023/11/11 06:05:31;;;;;;;6.30;3.40;;;;;;;18.89;43.31;99780.17;103555;1285;61377;-81
2023/11/11 06:07:56;;;;;;;6.20;2.90;;;;;;;18.89;43.26;99776.39;103448;1285;61505;-80
2023/11/11 06:10:23;;;;;;;5.90;3.20;;;;;;;18.90;43.36;99780.41;103725;1285;61440;-80
2023/11/11 06:12:49;;;;;;;4.80;3.10;;;;;;;18.90;43.28;99779.20;103547;1285;62260;-81
2023/11/11 06:15:17;;;;;;;5.80;2.80;;;;;;;18.90;43.26;99775.98;103556;1282;61346;-82
2023/11/11 06:17:42;;;;;;;6.60;3.30;;;;;;;18.90;43.41;99772.24;103796;1288;61417;-81
2023/11/11 06:20:09;;;;;;;6.30;3.10;;;;;;;18.90;43.37;99767.94;103683;1287;61250;-82
2023/11/11 06:22:35;;;;;;;6.30;3.40;;;;;;;18.90;43.25;99759.23;103645;1287;61272;-81
2023/11/11 06:25:01;;;;;;;6.20;2.70;;;;;;;18.90;43.27;99757.44;103821;1282;62646;-81
2023/11/11 06:27:27;;;;;;;7.00;3.00;;;;;;;18.91;43.34;99751.16;103649;1288;61977;-81
2023/11/11 06:29:53;;;;;;;6.90;3.20;;;;;;;18.91;43.33;99747.39;103781;1284;62616;-81
2023/11/11 06:32:19;;;;;;;5.90;3.40;;;;;;;18.90;43.37;99744.79;103715;1282;74362;-82
2023/11/11 06:34:46;;;;;;;5.70;3.30;;;;;;;18.90;43.34;99742.99;103749;1283;62480;-81
2023/11/11 06:37:12;;;;;;;4.90;3.00;;;;;;;18.90;43.29;99745.84;103727;1282;61381;-80
2023/11/11 06:39:38;;;;;;;6.10;3.10;;;;;;;18.90;43.38;99743.88;103707;1282;61416;-81
2023/11/11 06:42:04;;;;;;;5.20;2.90;;;;;;;18.91;43.44;99737.96;103865;1283;61322;-81
2023/11/11 06:44:30;;;;;;;5.70;3.30;;;;;;;18.91;43.30;99736.31;103890;1282;61720;-83
2023/11/11 06:46:57;;;;;;;5.80;3.20;;;;;;;18.91;43.24;99728.83;103729;1281;62567;-80
2023/11/11 06:49:23;;;;;;;5.40;3.00;;;;;;;18.91;43.35;99719.36;103843;1284;61300;-80
2023/11/11 06:51:50;;;;;;;6.20;3.20;;;;;;;18.91;43.38;99709.02;103810;1287;61916;-82
2023/11/11 06:54:15;;;;;;;5.90;3.10;;;;;;;18.92;43.39;99702.20;103800;1282;61474;-80
2023/11/11 06:56:41;;;;;;;5.70;3.10;;;;;;;18.92;43.22;99692.75;103700;1280;61954;-82
2023/11/11 06:59:11;;;;;;;6.50;3.50;;;;;;;18.92;43.31;99687.73;103849;1283;61356;-81
2023/11/11 07:01:39;;;;;;;5.70;3.00;;;;;;;18.92;43.35;99687.54;103993;1282;73208;-81
2023/11/11 07:04:05;;;;;;;6.70;3.50;;;;;;;18.92;43.22;99683.98;103509;1286;74489;-81
2023/11/11 07:06:30;;;;;;;6.30;3.20;;;;;;;18.93;43.31;99690.36;103741;1285;61388;-83
2023/11/11 07:08:56;;;;;;;6.30;3.40;;;;;;;18.93;43.38;99698.56;103905;1283;61462;-81
2023/11/11 07:11:22;;;;;;;5.20;2.80;;;;;;;18.93;43.29;99705.52;103845;1287;62469;-81
2023/11/11 07:13:47;;;;;;;7.20;3.40;;;;;;;18.93;43.24;99706.24;103675;1288;61477;-81
2023/11/11 07:16:17;;;;;;;5.20;3.10;;;;;;;18.93;43.44;99715.49;103816;1283;61558;-81
2023/11/11 07:18:44;;;;;;;6.30;3.20;;;;;;;18.93;43.38;99709.27;103644;1282;61275;-83
2023/11/11 07:21:24;;;;;;;6.20;3.60;;;;;;;18.93;43.39;99711.55;104034;1282;61361;-82
2023/11/11 07:23:50;;;;;;;;;;;;;;;18.93;43.44;99720.15;103957;1282;71399;-81
2023/11/11 07:26:16;;;;;;;5.30;3.00;;;;;;;18.90;43.52;99726.56;103767;1287;61308;-81
2023/11/11 07:28:46;;;;;;;5.90;3.40;;;;;;;18.91;43.29;99730.60;103821;1282;61368;-81
2023/11/11 07:31:13;;;;;;;6.90;3.10;;;;;;;18.92;43.52;99727.20;103673;1282;61382;-81
2023/11/11 07:33:40;;;;;;;5.70;3.30;;;;;;;18.91;43.38;99726.85;103762;1282;72489;-82
2023/11/11 07:36:08;;;;;;;6.10;3.40;;;;;;;18.92;43.53;99724.51;103860;1283;74738;-80
2023/11/11 07:38:34;;;;;;;5.70;3.30;;;;;;;18.92;43.42;99726.98;103853;1287;61263;-80
2023/11/11 07:41:00;;;;;;;5.90;3.20;;;;;;;18.92;43.44;99723.23;103852;1283;61419;-81
2023/11/11 07:43:27;;;;;;;6.70;3.50;;;;;;;18.92;43.45;99716.10;103818;1284;61304;-81
2023/11/11 07:45:54;;;;;;;5.40;3.80;;;;;;;18.92;43.38;99706.30;103763;1282;63440;-81
2023/11/11 07:48:20;;;;;;;6.80;3.30;;;;;;;18.92;43.43;99709.14;103688;1282;61269;-81
2023/11/11 07:50:46;;;;;;;6.40;3.40;;;;;;;18.92;43.35;99698.93;103850;1282;61475;-83
2023/11/11 07:53:14;;;;;;;6.30;3.70;;;;;;;18.93;43.37;99683.23;103875;1284;61374;-83
2023/11/11 07:55:41;;;;;;;6.50;3.60;;;;;;;18.92;43.52;99668.29;103839;1282;74329;-82
2023/11/11 07:58:07;;;;;;;7.00;3.60;;;;;;;18.93;43.47;99660.41;104065;1282;61306;-79
2023/11/11 08:00:33;;;;;;;5.90;3.70;;;;;;;18.93;43.61;99658.27;104194;1282;61386;-81
2023/11/11 08:03:03;;;;;;;5.90;3.20;;;;;;;18.93;43.46;99664.67;103894;1282;61957;-81
2023/11/11 08:05:29;;;;;;;7.00;3.40;;;;;;;18.93;43.38;99661.42;103858;1283;74478;-81
2023/11/11 08:07:59;;;;;;;8.30;3.60;;;;;;;18.93;43.63;99654.84;103912;1283;61543;-81
2023/11/11 08:10:25;;;;;;;5.40;3.40;;;;;;;18.93;43.53;99669.11;103859;1283;61500;-81
2023/11/11 08:12:53;;;;;;;5.40;3.40;;;;;;;18.93;43.50;99673.73;103821;1282;72347;-82
2023/11/11 08:15:22;;;;;;;6.00;3.40;;;;;;;18.94;43.44;99677.99;103723;1287;61813;-81
2023/11/11 08:17:49;;;;;;;5.90;3.40;;;;;;;18.94;43.52;99668.53;103877;1284;61340;-80
2023/11/11 08:20:18;;;;;;;5.50;3.30;;;;;;;18.94;43.52;99667.11;103796;1282;61286;-80
2023/11/11 08:22:46;;;;;;;6.90;3.60;;;;;;;18.93;43.52;99665.71;103678;1287;73211;-82
2023/11/11 08:25:20;;;;;;;7.20;3.80;;;;;;;18.94;43.60;99667.09;103974;1284;61257;-81
2023/11/11 08:27:50;;;;;;;6.30;3.50;;;;;;;18.94;43.53;99663.02;103540;1281;421876;-81
2023/11/11 08:30:24;;;;;;;6.40;3.70;;;;;;;18.94;43.68;99671.19;103809;1284;62609;-81
2023/11/11 08:32:49;;;;;;;6.30;3.60;;;;;;;18.94;43.56;99666.20;103737;1282;62133;-81
2023/11/11 08:35:15;;;;;;;6.90;3.90;;;;;;;18.94;43.55;99661.94;103680;1284;61405;-81
2023/11/11 08:37:43;;;;;;;7.80;3.50;;;;;;;18.94;43.54;99652.49;103552;1282;61394;-83
2023/11/11 08:40:10;;;;;;;8.70;3.90;;;;;;;18.95;43.65;99647.62;104041;1282;61443;-81
2023/11/11 08:42:36;;;;;;;7.40;3.80;;;;;;;18.94;43.61;99646.96;103791;1282;62131;-81
2023/11/11 08:45:02;;;;;;;8.90;3.50;;;;;;;18.94;43.68;99645.67;103829;1288;61317;-80
2023/11/11 08:47:28;;;;;;;7.10;3.70;;;;;;;18.94;43.64;99641.79;103904;1282;62575;-81
2023/11/11 08:49:54;;;;;;;6.40;3.80;;;;;;;18.94;43.66;99638.75;103879;1282;61893;-80
2023/11/11 08:52:21;;;;;;;7.40;4.10;;;;;;;18.95;43.66;99638.20;103928;1282;61382;-81
2023/11/11 08:54:47;;;;;;;6.10;3.80;;;;;;;18.94;43.69;99640.20;103925;1281;61289;-81
2023/11/11 08:57:13;;;;;;;6.90;4.00;;;;;;;18.95;43.71;99633.91;103785;1282;61380;-81
2023/11/11 08:59:39;;;;;;;6.60;4.00;;;;;;;18.94;43.73;99638.77;103883;1286;61311;-81
2023/11/11 09:02:05;;;;;;;7.00;3.80;;;;;;;18.95;43.71;99646.75;103739;1282;62496;-80
2023/11/11 09:04:30;;;;;;;6.00;3.80;;;;;;;18.95;43.71;99652.96;103836;1284;61461;-81
2023/11/11 09:06:56;;;;;;;6.80;3.90;;;;;;;18.95;43.82;99640.30;103815;1284;62648;-80
2023/11/11 09:09:22;;;;;;;7.70;3.80;;;;;;;18.94;43.68;99623.21;103631;1282;61424;-83
2023/11/11 09:11:47;;;;;;;8.60;4.00;;;;;;;18.95;43.78;99623.02;103806;1283;62666;-81
2023/11/11 09:14:13;;;;;;;7.30;3.70;;;;;;;18.95;43.76;99624.42;103754;1281;61336;-81
2023/11/11 09:16:39;;;;;;;7.40;3.70;;;;;;;18.95;43.70;99620.15;103681;1282;61430;-80
2023/11/11 09:19:05;;;;;;;8.00;3.90;;;;;;;18.95;43.73;99614.63;103981;1280;83397;-81
2023/11/11 09:21:32;;;;;;;7.90;4.00;;;;;;;18.95;43.88;99609.27;103748;1282;61377;-82
2023/11/11 09:24:02;;;;;;;7.20;3.80;;;;;;;18.95;43.80;99611.92;103814;1282;62784;-81
2023/11/11 09:26:28;;;;;;;7.00;3.70;;;;;;;18.95;43.75;99610.36;103835;1282;73154;-82
2023/11/11 09:28:54;;;;;;;6.60;3.90;;;;;;;18.95;43.73;99611.59;103744;1282;75726;-81
2023/11/11 09:31:20;;;;;;;6.70;3.60;;;;;;;18.95;43.71;99619.08;103880;1282;61753;-81
2023/11/11 09:33:50;;;;;;;6.40;4.00;;;;;;;18.95;43.68;99623.89;103678;1282;62521;-81
2023/11/11 09:36:18;;;;;;;9.60;3.80;;;;;;;18.95;43.67;99625.33;103809;1287;72964;-81
2023/11/11 09:38:49;;;;;;;8.20;3.90;;;;;;;18.95;43.81;99622.31;103723;1283;74505;-81
2023/11/11 09:41:15;;;;;;;5.90;3.70;;;;;;;18.95;43.74;99618.94;103748;1282;61279;-83
2023/11/11 09:43:44;;;;;;;7.20;3.90;;;;;;;18.95;43.68;99613.02;103754;1281;61714;-81
2023/11/11 09:46:14;;;;;;;6.90;3.50;;;;;;;18.95;43.82;99605.04;103820;1282;61445;-81
2023/11/11 09:48:44;;;;;;;7.30;3.90;;;;;;;18.95;43.69;99599.66;103860;1285;74481;-82
2023/11/11 09:51:10;;;;;;;7.50;4.00;;;;;;;18.95;43.86;99593.57;103767;1282;61362;-80
2023/11/11 09:53:36;;;;;;;8.90;4.10;;;;;;;18.95;43.84;99589.12;103655;1285;61442;-80
2023/11/11 09:56:02;;;;;;;7.50;3.70;;;;;;;18.95;43.71;99584.67;103900;1282;62138;-81
2023/11/11 09:58:29;;;;;;;8.20;4.00;;;;;;;18.95;43.83;99581.63;103636;1287;61423;-80
2023/11/11 10:00:55;;;;;;;7.90;3.80;;;;;;;18.95;43.71;99579.86;103592;1285;61468;-80
2023/11/11 10:03:20;;;;;;;7.10;3.80;;;;;;;18.95;43.73;99577.87;103601;1282;61415;-82
2023/11/11 10:05:46;;;;;;;9.20;4.00;;;;;;;18.95;43.68;99574.13;103746;1287;62523;-81
2023/11/11 10:08:11;;;;;;;9.20;3.70;;;;;;;18.95;43.72;99571.81;103861;1282;61747;-82
2023/11/11 10:10:38;;;;;;;6.90;4.00;;;;;;;18.95;43.75;99571.48;103617;1287;73380;-81
2023/11/11 10:13:04;;;;;;;7.60;4.00;;;;;;;18.95;43.79;99575.39;103874;1282;61244;-82
2023/11/11 10:15:29;;;;;;;9.50;4.50;;;;;;;18.95;43.71;99579.13;103688;1285;61350;-81
2023/11/11 10:17:58;;;;;;;7.10;4.10;;;;;;;18.96;43.75;99577.67;103914;1281;61410;-82
2023/11/11 10:20:25;;;;;;;7.10;3.50;;;;;;;18.95;43.72;99567.70;103625;1284;74442;-81
2023/11/11 10:22:51;;;;;;;6.30;3.60;;;;;;;18.95;43.85;99557.00;103665;1282;61398;-82
2023/11/11 10:25:18;;;;;;;8.00;4.10;;;;;;;18.96;43.69;99549.48;103777;1282;62522;-80
2023/11/11 10:27:50;;;;;;;7.20;4.20;;;;;;;18.96;43.76;99548.77;103819;1288;61384;-81
2023/11/11 10:30:24;;;;;;;7.10;4.00;;;;;;;18.96;43.82;99544.48;103656;1284;74504;-80
2023/11/11 10:32:53;;;;;;;8.40;4.30;;;;;;;18.95;43.83;99536.48;103936;1282;61599;-83
2023/11/11 10:35:20;;;;;;;7.00;4.00;;;;;;;18.96;43.76;99531.84;103782;1282;61478;-83
2023/11/11 10:37:47;;;;;;;7.50;4.60;;;;;;;18.96;43.76;99525.25;103781;1282;72333;-81
2023/11/11 10:40:19;;;;;;;6.60;4.00;;;;;;;18.96;43.74;99526.09;103821;1281;75372;-82
2023/11/11 10:42:45;;;;;;;8.90;4.30;;;;;;;18.95;43.82;99521.88;103369;1283;61376;-81
2023/11/11 10:45:15;;;;;;;8.70;4.30;;;;;;;18.96;43.74;99517.03;103765;1282;61464;-81
2023/11/11 10:47:45;;;;;;;8.10;4.60;;;;;;;18.96;43.79;99512.36;103869;1282;72382;-82
2023/11/11 10:50:14;;;;;;;7.20;4.00;;;;;;;18.96;43.83;99509.13;103709;1282;75350;-81
2023/11/11 10:52:41;;;;;;;7.10;4.00;;;;;;;18.96;43.85;99496.65;103891;1283;61304;-81
2023/11/11 10:55:07;;;;;;;8.00;4.40;;;;;;;18.97;43.76;99495.55;103633;1282;62613;-81
2023/11/11 10:57:35;;;;;;;7.70;4.30;;;;;;;18.97;43.75;99495.37;103761;1287;61751;-80
2023/11/11 11:00:16;;;;;;;6.80;4.40;;;;;;;18.97;43.78;99493.73;103992;1281;74647;-81
2023/11/11 11:02:51;;;;;;;7.90;4.40;;;;;;;18.96;43.96;99479.37;103679;1282;62147;-83
2023/11/11 11:05:44;;;;;;;8.10;4.30;;;;;;;18.97;43.91;99470.59;103825;1282;62020;-81
2023/11/11 11:08:31;;;;;;;7.70;4.30;;;;;;;18.96;43.88;99470.79;103979;1282;72296;-81
2023/11/11 11:11:37;;;;;;;6.50;4.60;;;;;;;18.97;43.89;99468.99;103752;1283;75432;-81
2023/11/11 11:14:26;;;;;;;8.30;4.00;;;;;;;18.96;44.00;99463.70;103609;1282;61395;-81
2023/11/11 11:16:51;;;;;;;6.80;4.10;;;;;;;18.96;43.99;99458.86;103853;1282;62097;-81
2023/11/11 11:19:19;;;;;;;6.90;4.10;;;;;;;18.96;44.01;99451.92;103782;1282;61389;-81
2023/11/11 11:21:46;;;;;;;6.90;4.20;;;;;;;18.97;43.91;99450.08;103830;1287;61449;-81
2023/11/11 11:24:12;;;;;;;8.10;4.20;;;;;;;18.97;43.82;99447.74;103691;1287;61292;-82